sensor_id;sensor_type;location;lat;lon;timestamp;pressure;altitude;pressure_sealevel;temperature;humidity
80712;BME280;70078;51.596;5.678;2024-02-15T00:02:23;101579.72;;;12.03;100.00
80712;BME280;70078;51.596;5.678;2024-02-15T00:04:49;101564.09;;;11.90;100.00
80712;BME280;70078;51.596;5.678;2024-02-15T00:07:14;101520.94;;;11.67;100.00
80712;BME280;70078;51.596;5.678;2024-02-15T00:09:39;101585.09;;;12.03;100.00
80712;BME280;70078;51.596;5.678;2024-02-15T00:12:05;101537.81;;;11.67;100.00
80712;BME280;70078;51.596;5.678;2024-02-15T00:14:30;101591.63;;;12.08;100.00
80712;BME280;70078;51.596;5.678;2024-02-15T00:16:57;101526.06;;;11.60;100.00
80712;BME280;70078;51.596;5.678;2024-02-15T00:19:23;101519.44;;;11.64;100.00
80712;BME280;70078;51.596;5.678;2024-02-15T00:21:49;101581.63;;;12.10;100.00
80712;BME280;70078;51.596;5.678;2024-02-15T00:24:17;101509.97;;;11.52;100.00
80712;BME280;70078;51.596;5.678;2024-02-15T00:26:42;101517.44;;;11.66;100.00
80712;BME280;70078;51.596;5.678;2024-02-15T00:29:08;101585.28;;;12.09;100.00
80712;BME280;70078;51.596;5.678;2024-02-15T00:31:33;101535.88;;;11.78;100.00
80712;BME280;70078;51.596;5.678;2024-02-15T00:33:58;101545.06;;;11.75;100.00
80712;BME280;70078;51.596;5.678;2024-02-15T00:36:26;101574.59;;;12.09;100.00
80712;BME280;70078;51.596;5.678;2024-02-15T00:38:55;101563.41;;;11.88;100.00
80712;BME280;70078;51.596;5.678;2024-02-15T00:41:21;101541.88;;;11.72;100.00
80712;BME280;70078;51.596;5.678;2024-02-15T00:43:46;101582.53;;;12.01;100.00
80712;BME280;70078;51.596;5.678;2024-02-15T00:46:12;101553.75;;;11.77;100.00
80712;BME280;70078;51.596;5.678;2024-02-15T00:48:37;101583.88;;;11.97;100.00
80712;BME280;70078;51.596;5.678;2024-02-15T00:51:03;101508.97;;;11.53;100.00
80712;BME280;70078;51.596;5.678;2024-02-15T00:53:28;101572.78;;;11.92;100.00
80712;BME280;70078;51.596;5.678;2024-02-15T00:55:55;101528.06;;;11.58;100.00
80712;BME280;70078;51.596;5.678;2024-02-15T00:58:21;101583.16;;;11.87;100.00
80712;BME280;70078;51.596;5.678;2024-02-15T01:00:46;101595.88;;;11.93;100.00
80712;BME280;70078;51.596;5.678;2024-02-15T01:03:12;101553.19;;;11.65;100.00
80712;BME280;70078;51.596;5.678;2024-02-15T01:05:37;101585.31;;;11.91;100.00
80712;BME280;70078;51.596;5.678;2024-02-15T01:08:02;101531.41;;;11.60;100.00
80712;BME280;70078;51.596;5.678;2024-02-15T01:10:30;101576.50;;;11.99;100.00
80712;BME280;70078;51.596;5.678;2024-02-15T01:12:55;101556.91;;;11.73;100.00
80712;BME280;70078;51.596;5.678;2024-02-15T01:15:20;101577.13;;;11.93;100.00
80712;BME280;70078;51.596;5.678;2024-02-15T01:17:46;101490.47;;;11.34;100.00
80712;BME280;70078;51.596;5.678;2024-02-15T01:20:12;101523.00;;;11.55;100.00
80712;BME280;70078;51.596;5.678;2024-02-15T01:22:37;101515.63;;;11.49;100.00
80712;BME280;70078;51.596;5.678;2024-02-15T01:25:03;101584.13;;;11.86;100.00
80712;BME280;70078;51.596;5.678;2024-02-15T01:27:31;101489.59;;;11.33;100.00
80712;BME280;70078;51.596;5.678;2024-02-15T01:29:59;101536.31;;;11.47;100.00
80712;BME280;70078;51.596;5.678;2024-02-15T01:32:27;101537.81;;;11.67;100.00
80712;BME280;70078;51.596;5.678;2024-02-15T01:34:52;101574.94;;;11.88;100.00
80712;BME280;70078;51.596;5.678;2024-02-15T01:37:20;101534.31;;;11.67;100.00
80712;BME280;70078;51.596;5.678;2024-02-15T01:39:48;101492.03;;;11.45;100.00
80712;BME280;70078;51.596;5.678;2024-02-15T01:42:14;101503.56;;;11.45;100.00
80712;BME280;70078;51.596;5.678;2024-02-15T01:44:39;101565.25;;;11.87;100.00
80712;BME280;70078;51.596;5.678;2024-02-15T01:47:08;101545.38;;;11.72;100.00
80712;BME280;70078;51.596;5.678;2024-02-15T01:49:34;101514.47;;;11.52;100.00
80712;BME280;70078;51.596;5.678;2024-02-15T01:52:00;101562.72;;;11.86;100.00
80712;BME280;70078;51.596;5.678;2024-02-15T01:54:26;101501.94;;;11.52;100.00
80712;BME280;70078;51.596;5.678;2024-02-15T01:56:55;101518.44;;;11.65;100.00
80712;BME280;70078;51.596;5.678;2024-02-15T01:59:21;101553.22;;;11.91;100.00
80712;BME280;70078;51.596;5.678;2024-02-15T02:01:50;101528.19;;;11.75;100.00
80712;BME280;70078;51.596;5.678;2024-02-15T02:04:19;101548.41;;;11.77;100.00
80712;BME280;70078;51.596;5.678;2024-02-15T02:06:45;101478.06;;;11.33;100.00
80712;BME280;70078;51.596;5.678;2024-02-15T02:09:11;101541.09;;;11.79;100.00
80712;BME280;70078;51.596;5.678;2024-02-15T02:11:46;101480.13;;;11.39;100.00
80712;BME280;70078;51.596;5.678;2024-02-15T02:14:11;101469.34;;;11.49;100.00
80712;BME280;70078;51.596;5.678;2024-02-15T02:16:37;101530.25;;;11.81;100.00
80712;BME280;70078;51.596;5.678;2024-02-15T02:19:03;101494.75;;;11.53;100.00
80712;BME280;70078;51.596;5.678;2024-02-15T02:21:35;101504.28;;;11.73;100.00
80712;BME280;70078;51.596;5.678;2024-02-15T02:24:03;101525.16;;;11.78;100.00
80712;BME280;70078;51.596;5.678;2024-02-15T02:26:33;101528.63;;;11.88;100.00
80712;BME280;70078;51.596;5.678;2024-02-15T02:28:59;101487.78;;;11.60;100.00
80712;BME280;70078;51.596;5.678;2024-02-15T02:31:35;101526.25;;;11.85;100.00
80712;BME280;70078;51.596;5.678;2024-02-15T02:34:00;101454.81;;;11.51;100.00
80712;BME280;70078;51.596;5.678;2024-02-15T02:36:26;101518.44;;;11.91;100.00
80712;BME280;70078;51.596;5.678;2024-02-15T02:38:52;101454.16;;;11.49;100.00
80712;BME280;70078;51.596;5.678;2024-02-15T02:41:20;101482.94;;;11.63;100.00
80712;BME280;70078;51.596;5.678;2024-02-15T02:43:45;101515.41;;;11.86;100.00
80712;BME280;70078;51.596;5.678;2024-02-15T02:46:11;101485.50;;;11.65;100.00
80712;BME280;70078;51.596;5.678;2024-02-15T02:48:38;101489.31;;;11.62;100.00
80712;BME280;70078;51.596;5.678;2024-02-15T02:51:03;101475.53;;;11.49;100.00
80712;BME280;70078;51.596;5.678;2024-02-15T02:53:29;101520.81;;;11.77;100.00
80712;BME280;70078;51.596;5.678;2024-02-15T02:55:56;101412.25;;;11.06;100.00
80712;BME280;70078;51.596;5.678;2024-02-15T02:58:21;101510.75;;;11.71;100.00
80712;BME280;70078;51.596;5.678;2024-02-15T03:00:48;101474.53;;;11.50;100.00
80712;BME280;70078;51.596;5.678;2024-02-15T03:03:13;101516.31;;;11.77;100.00
80712;BME280;70078;51.596;5.678;2024-02-15T03:05:48;101475.81;;;11.46;100.00
80712;BME280;70078;51.596;5.678;2024-02-15T03:08:13;101511.38;;;11.82;100.00
80712;BME280;70078;51.596;5.678;2024-02-15T03:10:41;101435.78;;;11.28;100.00
80712;BME280;70078;51.596;5.678;2024-02-15T03:13:08;101489.16;;;11.64;100.00
80712;BME280;70078;51.596;5.678;2024-02-15T03:15:37;101424.56;;;11.25;100.00
80712;BME280;70078;51.596;5.678;2024-02-15T03:18:02;101508.25;;;11.69;100.00
80712;BME280;70078;51.596;5.678;2024-02-15T03:20:32;101434.56;;;11.23;100.00
80712;BME280;70078;51.596;5.678;2024-02-15T03:22:59;101465.91;;;11.38;100.00
80712;BME280;70078;51.596;5.678;2024-02-15T03:25:26;101494.41;;;11.74;100.00
80712;BME280;70078;51.596;5.678;2024-02-15T03:27:55;101442.41;;;11.42;100.00
80712;BME280;70078;51.596;5.678;2024-02-15T03:30:23;101442.84;;;11.37;100.00
80712;BME280;70078;51.596;5.678;2024-02-15T03:32:52;101505.94;;;11.74;100.00
80712;BME280;70078;51.596;5.678;2024-02-15T03:35:18;101507.09;;;11.72;100.00
80712;BME280;70078;51.596;5.678;2024-02-15T03:37:44;101454.44;;;11.46;100.00
80712;BME280;70078;51.596;5.678;2024-02-15T03:40:12;101476.03;;;11.53;100.00
80712;BME280;70078;51.596;5.678;2024-02-15T03:42:37;101504.78;;;11.77;100.00
80712;BME280;70078;51.596;5.678;2024-02-15T03:45:06;101486.16;;;11.67;100.00
80712;BME280;70078;51.596;5.678;2024-02-15T03:47:34;101490.72;;;11.75;100.00
80712;BME280;70078;51.596;5.678;2024-02-15T03:50:06;101456.88;;;11.57;100.00
80712;BME280;70078;51.596;5.678;2024-02-15T03:52:35;101463.50;;;11.53;100.00
80712;BME280;70078;51.596;5.678;2024-02-15T03:55:00;101501.09;;;11.78;100.00
80712;BME280;70078;51.596;5.678;2024-02-15T03:57:27;101478.78;;;11.61;100.00
80712;BME280;70078;51.596;5.678;2024-02-15T03:59:53;101505.34;;;11.80;100.00
80712;BME280;70078;51.596;5.678;2024-02-15T04:02:20;101445.75;;;11.44;100.00
80712;BME280;70078;51.596;5.678;2024-02-15T04:04:45;101499.13;;;11.80;100.00
80712;BME280;70078;51.596;5.678;2024-02-15T04:07:14;101468.28;;;11.67;100.00
80712;BME280;70078;51.596;5.678;2024-02-15T04:09:44;101440.22;;;11.46;100.00
80712;BME280;70078;51.596;5.678;2024-02-15T04:12:12;101422.69;;;11.43;100.00
80712;BME280;70078;51.596;5.678;2024-02-15T04:14:43;101472.13;;;11.65;100.00
80712;BME280;70078;51.596;5.678;2024-02-15T04:17:10;101431.53;;;11.44;100.00
80712;BME280;70078;51.596;5.678;2024-02-15T04:19:38;101485.00;;;11.70;100.00
80712;BME280;70078;51.596;5.678;2024-02-15T04:22:06;101471.84;;;11.76;99.65
80712;BME280;70078;51.596;5.678;2024-02-15T04:24:35;101445.28;;;11.49;99.92
80712;BME280;70078;51.596;5.678;2024-02-15T04:27:05;101443.75;;;11.46;100.00
80712;BME280;70078;51.596;5.678;2024-02-15T04:29:33;101469.53;;;11.55;100.00
80712;BME280;70078;51.596;5.678;2024-02-15T04:31:58;101494.03;;;11.86;100.00
80712;BME280;70078;51.596;5.678;2024-02-15T04:34:23;101463.41;;;11.63;100.00
80712;BME280;70078;51.596;5.678;2024-02-15T04:36:49;101494.84;;;11.87;100.00
80712;BME280;70078;51.596;5.678;2024-02-15T04:39:16;101494.16;;;11.85;100.00
80712;BME280;70078;51.596;5.678;2024-02-15T04:41:50;101447.47;;;11.53;100.00
80712;BME280;70078;51.596;5.678;2024-02-15T04:44:16;101490.34;;;11.87;100.00
80712;BME280;70078;51.596;5.678;2024-02-15T04:46:43;101479.78;;;11.86;100.00
80712;BME280;70078;51.596;5.678;2024-02-15T04:49:14;101417.00;;;11.46;100.00
80712;BME280;70078;51.596;5.678;2024-02-15T04:51:39;101475.75;;;11.82;100.00
80712;BME280;70078;51.596;5.678;2024-02-15T04:54:07;101442.16;;;11.61;100.00
80712;BME280;70078;51.596;5.678;2024-02-15T04:56:33;101475.78;;;11.90;100.00
80712;BME280;70078;51.596;5.678;2024-02-15T04:59:04;101405.19;;;11.49;100.00
80712;BME280;70078;51.596;5.678;2024-02-15T05:01:34;101445.94;;;11.77;100.00
80712;BME280;70078;51.596;5.678;2024-02-15T05:03:59;101465.25;;;11.88;100.00
80712;BME280;70078;51.596;5.678;2024-02-15T05:06:24;101351.38;;;11.26;100.00
80712;BME280;70078;51.596;5.678;2024-02-15T05:08:54;101421.59;;;11.62;100.00
80712;BME280;70078;51.596;5.678;2024-02-15T05:11:21;101399.97;;;11.47;100.00
80712;BME280;70078;51.596;5.678;2024-02-15T05:13:47;101422.06;;;11.49;100.00
80712;BME280;70078;51.596;5.678;2024-02-15T05:16:16;101444.53;;;11.64;100.00
80712;BME280;70078;51.596;5.678;2024-02-15T05:18:41;101468.72;;;11.81;100.00
80712;BME280;70078;51.596;5.678;2024-02-15T05:21:07;101427.28;;;11.59;100.00
80712;BME280;70078;51.596;5.678;2024-02-15T05:23:40;101430.13;;;11.57;100.00
80712;BME280;70078;51.596;5.678;2024-02-15T05:26:11;101469.41;;;11.83;100.00
80712;BME280;70078;51.596;5.678;2024-02-15T05:28:37;101467.44;;;11.93;100.00
80712;BME280;70078;51.596;5.678;2024-02-15T05:31:17;101476.81;;;11.89;100.00
80712;BME280;70078;51.596;5.678;2024-02-15T05:33:53;101480.81;;;11.93;100.00
80712;BME280;70078;51.596;5.678;2024-02-15T05:36:21;101481.31;;;11.88;100.00
80712;BME280;70078;51.596;5.678;2024-02-15T05:38:53;101479.31;;;11.90;100.00
80712;BME280;70078;51.596;5.678;2024-02-15T05:41:23;101476.44;;;11.84;100.00
80712;BME280;70078;51.596;5.678;2024-02-15T05:43:49;101457.75;;;11.66;100.00
80712;BME280;70078;51.596;5.678;2024-02-15T05:46:17;101452.88;;;11.61;100.00
80712;BME280;70078;51.596;5.678;2024-02-15T05:48:53;101484.16;;;11.87;100.00
80712;BME280;70078;51.596;5.678;2024-02-15T05:51:18;101483.81;;;11.90;100.00
80712;BME280;70078;51.596;5.678;2024-02-15T05:53:46;101442.72;;;11.65;100.00
80712;BME280;70078;51.596;5.678;2024-02-15T05:56:12;101478.13;;;11.93;100.00
80712;BME280;70078;51.596;5.678;2024-02-15T05:58:38;101438.53;;;11.71;100.00
80712;BME280;70078;51.596;5.678;2024-02-15T06:01:07;101440.53;;;11.68;100.00
80712;BME280;70078;51.596;5.678;2024-02-15T06:03:33;101466.94;;;11.89;100.00
80712;BME280;70078;51.596;5.678;2024-02-15T06:06:02;101425.53;;;11.76;100.00
80712;BME280;70078;51.596;5.678;2024-02-15T06:08:32;101429.56;;;11.80;100.00
80712;BME280;70078;51.596;5.678;2024-02-15T06:10:57;101443.22;;;11.94;100.00
80712;BME280;70078;51.596;5.678;2024-02-15T06:13:23;101450.03;;;11.89;100.00
80712;BME280;70078;51.596;5.678;2024-02-15T06:15:52;101419.13;;;11.68;100.00
80712;BME280;70078;51.596;5.678;2024-02-15T06:18:19;101376.78;;;11.56;100.00
80712;BME280;70078;51.596;5.678;2024-02-15T06:20:47;101383.66;;;11.58;100.00
80712;BME280;70078;51.596;5.678;2024-02-15T06:23:16;101403.25;;;11.67;100.00
80712;BME280;70078;51.596;5.678;2024-02-15T06:25:41;101346.66;;;11.46;100.00
80712;BME280;70078;51.596;5.678;2024-02-15T06:28:06;101395.16;;;11.85;100.00
80712;BME280;70078;51.596;5.678;2024-02-15T06:30:41;101371.38;;;11.74;100.00
80712;BME280;70078;51.596;5.678;2024-02-15T06:33:25;101390.59;;;11.77;100.00
80712;BME280;70078;51.596;5.678;2024-02-15T06:36:09;101353.06;;;11.53;100.00
80712;BME280;70078;51.596;5.678;2024-02-15T06:38:53;101386.03;;;11.70;100.00
80712;BME280;70078;51.596;5.678;2024-02-15T06:41:37;101348.97;;;11.40;100.00
80712;BME280;70078;51.596;5.678;2024-02-15T06:44:02;101418.88;;;11.80;100.00
80712;BME280;70078;51.596;5.678;2024-02-15T06:46:28;101408.44;;;11.68;100.00
80712;BME280;70078;51.596;5.678;2024-02-15T06:48:54;101392.66;;;11.49;100.00
80712;BME280;70078;51.596;5.678;2024-02-15T06:51:19;101423.31;;;11.71;100.00
80712;BME280;70078;51.596;5.678;2024-02-15T06:53:45;101368.47;;;11.33;100.00
80712;BME280;70078;51.596;5.678;2024-02-15T06:56:11;101407.53;;;11.52;100.00
80712;BME280;70078;51.596;5.678;2024-02-15T06:58:36;101436.34;;;11.66;100.00
80712;BME280;70078;51.596;5.678;2024-02-15T07:01:02;101429.97;;;11.59;100.00
80712;BME280;70078;51.596;5.678;2024-02-15T07:03:28;101441.22;;;11.71;100.00
80712;BME280;70078;51.596;5.678;2024-02-15T07:05:55;101392.59;;;11.41;100.00
80712;BME280;70078;51.596;5.678;2024-02-15T07:08:21;101410.88;;;11.54;100.00
80712;BME280;70078;51.596;5.678;2024-02-15T07:10:49;101415.34;;;11.45;100.00
80712;BME280;70078;51.596;5.678;2024-02-15T07:13:18;101405.81;;;11.43;100.00
80712;BME280;70078;51.596;5.678;2024-02-15T07:15:45;101398.25;;;11.38;100.00
80712;BME280;70078;51.596;5.678;2024-02-15T07:18:12;101454.44;;;11.72;100.00
80712;BME280;70078;51.596;5.678;2024-02-15T07:20:37;101411.00;;;11.44;100.00
80712;BME280;70078;51.596;5.678;2024-02-15T07:23:03;101444.66;;;11.81;100.00
80712;BME280;70078;51.596;5.678;2024-02-15T07:25:28;101398.16;;;11.56;100.00
80712;BME280;70078;51.596;5.678;2024-02-15T07:27:54;101439.66;;;11.86;100.00
80712;BME280;70078;51.596;5.678;2024-02-15T07:30:19;101407.06;;;11.56;100.00
80712;BME280;70078;51.596;5.678;2024-02-15T07:32:45;101430.66;;;11.87;100.00
80712;BME280;70078;51.596;5.678;2024-02-15T07:35:11;101387.19;;;11.59;100.00
80712;BME280;70078;51.596;5.678;2024-02-15T07:37:36;101440.66;;;11.85;100.00
80712;BME280;70078;51.596;5.678;2024-02-15T07:40:02;101400.00;;;11.55;100.00
80712;BME280;70078;51.596;5.678;2024-02-15T07:42:32;101381.47;;;11.54;100.00
80712;BME280;70078;51.596;5.678;2024-02-15T07:45:00;101387.69;;;11.62;100.00
80712;BME280;70078;51.596;5.678;2024-02-15T07:47:25;101424.63;;;11.93;100.00
80712;BME280;70078;51.596;5.678;2024-02-15T07:49:52;101405.47;;;11.72;100.00
80712;BME280;70078;51.596;5.678;2024-02-15T07:52:17;101426.63;;;11.91;100.00
80712;BME280;70078;51.596;5.678;2024-02-15T07:54:43;101365.75;;;11.51;100.00
80712;BME280;70078;51.596;5.678;2024-02-15T07:57:08;101429.97;;;11.93;100.00
80712;BME280;70078;51.596;5.678;2024-02-15T07:59:34;101390.06;;;11.65;100.00
80712;BME280;70078;51.596;5.678;2024-02-15T08:02:01;101358.56;;;11.51;100.00
80712;BME280;70078;51.596;5.678;2024-02-15T08:04:26;101435.19;;;11.94;100.00
80712;BME280;70078;51.596;5.678;2024-02-15T08:06:51;101390.72;;;11.67;100.00
80712;BME280;70078;51.596;5.678;2024-02-15T08:09:19;101374.31;;;11.62;100.00
80712;BME280;70078;51.596;5.678;2024-02-15T08:11:47;101359.56;;;11.50;100.00
80712;BME280;70078;51.596;5.678;2024-02-15T08:14:12;101428.84;;;11.96;100.00
80712;BME280;70078;51.596;5.678;2024-02-15T08:16:38;101415.47;;;11.96;100.00
80712;BME280;70078;51.596;5.678;2024-02-15T08:19:05;101377.69;;;11.64;100.00
80712;BME280;70078;51.596;5.678;2024-02-15T08:21:32;101350.75;;;11.58;100.00
80712;BME280;70078;51.596;5.678;2024-02-15T08:24:00;101406.75;;;11.93;100.00
80712;BME280;70078;51.596;5.678;2024-02-15T08:26:26;101341.00;;;11.49;100.00
80712;BME280;70078;51.596;5.678;2024-02-15T08:28:52;101411.13;;;11.94;100.00
80712;BME280;70078;51.596;5.678;2024-02-15T08:31:18;101372.66;;;11.70;100.00
80712;BME280;70078;51.596;5.678;2024-02-15T08:33:44;101371.03;;;11.77;100.00
80712;BME280;70078;51.596;5.678;2024-02-15T08:36:11;101368.34;;;11.77;100.00
80712;BME280;70078;51.596;5.678;2024-02-15T08:38:38;101384.16;;;11.88;100.00
80712;BME280;70078;51.596;5.678;2024-02-15T08:41:03;101410.13;;;12.04;100.00
80712;BME280;70078;51.596;5.678;2024-02-15T08:43:33;101316.41;;;11.45;100.00
80712;BME280;70078;51.596;5.678;2024-02-15T08:45:58;101400.47;;;12.11;100.00
80712;BME280;70078;51.596;5.678;2024-02-15T08:48:24;101380.19;;;12.08;100.00
80712;BME280;70078;51.596;5.678;2024-02-15T08:50:50;101395.13;;;12.19;100.00
80712;BME280;70078;51.596;5.678;2024-02-15T08:53:15;101342.50;;;11.85;100.00
80712;BME280;70078;51.596;5.678;2024-02-15T08:55:40;101394.63;;;12.23;100.00
80712;BME280;70078;51.596;5.678;2024-02-15T08:58:06;101373.16;;;12.07;100.00
80712;BME280;70078;51.596;5.678;2024-02-15T09:00:31;101357.28;;;12.06;100.00
80712;BME280;70078;51.596;5.678;2024-02-15T09:02:57;101383.59;;;12.18;100.00
80712;BME280;70078;51.596;5.678;2024-02-15T09:05:22;101393.81;;;12.31;100.00
80712;BME280;70078;51.596;5.678;2024-02-15T09:07:48;101394.47;;;12.25;100.00
80712;BME280;70078;51.596;5.678;2024-02-15T09:10:13;101387.47;;;12.32;100.00
80712;BME280;70078;51.596;5.678;2024-02-15T09:12:40;101380.56;;;12.13;100.00
80712;BME280;70078;51.596;5.678;2024-02-15T09:15:07;101356.09;;;12.00;100.00
80712;BME280;70078;51.596;5.678;2024-02-15T09:17:33;101351.06;;;11.97;100.00
80712;BME280;70078;51.596;5.678;2024-02-15T09:20:10;101378.25;;;12.18;100.00
80712;BME280;70078;51.596;5.678;2024-02-15T09:25:16;101354.44;;;12.07;100.00
80712;BME280;70078;51.596;5.678;2024-02-15T09:27:42;101354.16;;;12.18;98.68
80712;BME280;70078;51.596;5.678;2024-02-15T09:30:07;101403.03;;;12.45;98.93
80712;BME280;70078;51.596;5.678;2024-02-15T09:32:38;101393.31;;;12.36;98.99
80712;BME280;70078;51.596;5.678;2024-02-15T09:35:04;101369.56;;;12.25;99.78
80712;BME280;70078;51.596;5.678;2024-02-15T09:37:38;101378.91;;;12.20;99.77
80712;BME280;70078;51.596;5.678;2024-02-15T09:40:08;101385.28;;;12.28;99.70
80712;BME280;70078;51.596;5.678;2024-02-15T09:42:35;101377.25;;;12.28;99.68
80712;BME280;70078;51.596;5.678;2024-02-15T09:45:01;101395.34;;;12.42;100.00
80712;BME280;70078;51.596;5.678;2024-02-15T09:47:34;101400.34;;;12.45;99.66
80712;BME280;70078;51.596;5.678;2024-02-15T09:50:00;101401.91;;;12.56;99.54
80712;BME280;70078;51.596;5.678;2024-02-15T09:52:25;101393.53;;;12.59;98.87
80712;BME280;70078;51.596;5.678;2024-02-15T09:54:52;101374.75;;;12.42;99.21
80712;BME280;70078;51.596;5.678;2024-02-15T09:57:20;101382.63;;;12.52;98.88
80712;BME280;70078;51.596;5.678;2024-02-15T09:59:45;101404.75;;;12.62;98.72
80712;BME280;70078;51.596;5.678;2024-02-15T10:02:10;101393.88;;;12.64;98.98
80712;BME280;70078;51.596;5.678;2024-02-15T10:04:39;101362.88;;;12.45;98.77
80712;BME280;70078;51.596;5.678;2024-02-15T10:07:05;101403.41;;;12.74;98.26
80712;BME280;70078;51.596;5.678;2024-02-15T10:09:33;101400.06;;;12.72;96.96
80712;BME280;70078;51.596;5.678;2024-02-15T10:12:01;101351.16;;;12.46;96.96
80712;BME280;70078;51.596;5.678;2024-02-15T10:14:28;101387.69;;;12.80;95.21
80712;BME280;70078;51.596;5.678;2024-02-15T10:16:54;101396.91;;;12.85;95.79
80712;BME280;70078;51.596;5.678;2024-02-15T10:19:20;101382.31;;;12.71;96.49
80712;BME280;70078;51.596;5.678;2024-02-15T10:21:51;101356.69;;;12.69;95.52
80712;BME280;70078;51.596;5.678;2024-02-15T10:24:20;101342.63;;;12.59;95.05
80712;BME280;70078;51.596;5.678;2024-02-15T10:26:48;101344.31;;;12.60;95.97
80712;BME280;70078;51.596;5.678;2024-02-15T10:29:14;101389.53;;;12.95;96.33
80712;BME280;70078;51.596;5.678;2024-02-15T10:31:52;101382.50;;;12.94;95.62
80712;BME280;70078;51.596;5.678;2024-02-15T10:34:18;101375.59;;;12.92;95.56
80712;BME280;70078;51.596;5.678;2024-02-15T10:36:44;101398.91;;;13.08;95.91
80712;BME280;70078;51.596;5.678;2024-02-15T10:39:14;101381.31;;;12.97;95.97
80712;BME280;70078;51.596;5.678;2024-02-15T10:41:52;101376.78;;;12.97;95.39
80712;BME280;70078;51.596;5.678;2024-02-15T10:44:22;101393.84;;;13.13;94.33
80712;BME280;70078;51.596;5.678;2024-02-15T10:46:52;101366.22;;;12.96;94.51
80712;BME280;70078;51.596;5.678;2024-02-15T10:49:22;101353.03;;;12.86;94.34
80712;BME280;70078;51.596;5.678;2024-02-15T10:51:51;101380.63;;;13.11;94.21
80712;BME280;70078;51.596;5.678;2024-02-15T10:54:25;101367.88;;;13.05;94.13
80712;BME280;70078;51.596;5.678;2024-02-15T10:57:03;101376.28;;;13.10;92.86
80712;BME280;70078;51.596;5.678;2024-02-15T10:59:32;101347.97;;;12.91;92.20
80712;BME280;70078;51.596;5.678;2024-02-15T11:02:00;101383.66;;;13.08;93.47
80712;BME280;70078;51.596;5.678;2024-02-15T11:04:27;101380.63;;;13.11;92.42
80712;BME280;70078;51.596;5.678;2024-02-15T11:06:58;101352.00;;;12.95;92.92
80712;BME280;70078;51.596;5.678;2024-02-15T11:09:23;101348.16;;;12.90;93.45
80712;BME280;70078;51.596;5.678;2024-02-15T11:11:52;101326.03;;;12.88;92.06
80712;BME280;70078;51.596;5.678;2024-02-15T11:14:28;101332.41;;;12.95;92.33
80712;BME280;70078;51.596;5.678;2024-02-15T11:16:58;101382.47;;;13.27;93.40
80712;BME280;70078;51.596;5.678;2024-02-15T11:21:58;101312.28;;;12.99;92.09
80712;BME280;70078;51.596;5.678;2024-02-15T11:24:28;101375.56;;;13.41;91.99
80712;BME280;70078;51.596;5.678;2024-02-15T11:26:58;101361.81;;;13.44;91.55
80712;BME280;70078;51.596;5.678;2024-02-15T11:29:51;101358.25;;;13.51;91.56
80712;BME280;70078;51.596;5.678;2024-02-15T11:32:45;101358.41;;;13.58;90.70
80712;BME280;70078;51.596;5.678;2024-02-15T11:35:15;101311.41;;;13.31;91.51
80712;BME280;70078;51.596;5.678;2024-02-15T11:40:23;101351.69;;;13.62;91.32
80712;BME280;70078;51.596;5.678;2024-02-15T11:42:57;101355.34;;;13.69;90.39
80712;BME280;70078;51.596;5.678;2024-02-15T11:45:24;101327.19;;;13.65;88.92
80712;BME280;70078;51.596;5.678;2024-02-15T11:47:52;101328.38;;;13.63;90.13
80712;BME280;70078;51.596;5.678;2024-02-15T11:50:18;101330.22;;;13.62;90.09
80712;BME280;70078;51.596;5.678;2024-02-15T11:52:45;101347.44;;;13.76;91.57
80712;BME280;70078;51.596;5.678;2024-02-15T11:55:12;101344.69;;;13.92;90.55
80712;BME280;70078;51.596;5.678;2024-02-15T11:57:53;101338.06;;;14.03;90.80
80712;BME280;70078;51.596;5.678;2024-02-15T12:00:26;101308.28;;;13.89;89.92
80712;BME280;70078;51.596;5.678;2024-02-15T12:03:10;101330.97;;;14.10;89.84
80712;BME280;70078;51.596;5.678;2024-02-15T12:05:55;101330.03;;;14.26;88.45
80712;BME280;70078;51.596;5.678;2024-02-15T12:08:39;101301.75;;;14.15;89.08
80712;BME280;70078;51.596;5.678;2024-02-15T12:11:23;101293.97;;;14.20;89.27
80712;BME280;70078;51.596;5.678;2024-02-15T12:14:11;101317.50;;;14.41;88.10
80712;BME280;70078;51.596;5.678;2024-02-15T12:17:03;101316.66;;;14.40;87.72
80712;BME280;70078;51.596;5.678;2024-02-15T12:19:48;101278.00;;;14.27;87.17
80712;BME280;70078;51.596;5.678;2024-02-15T12:22:24;101260.03;;;14.27;86.37
80712;BME280;70078;51.596;5.678;2024-02-15T12:25:14;101290.78;;;14.48;87.15
80712;BME280;70078;51.596;5.678;2024-02-15T12:27:43;101273.84;;;14.47;87.73
80712;BME280;70078;51.596;5.678;2024-02-15T12:30:19;101281.41;;;14.66;87.33
80712;BME280;70078;51.596;5.678;2024-02-15T12:32:48;101286.22;;;14.71;86.40
80712;BME280;70078;51.596;5.678;2024-02-15T12:35:16;101253.84;;;14.64;86.15
80712;BME280;70078;51.596;5.678;2024-02-15T12:40:30;101276.50;;;14.99;87.11
80712;BME280;70078;51.596;5.678;2024-02-15T12:42:55;101267.97;;;15.11;85.33
80712;BME280;70078;51.596;5.678;2024-02-15T12:45:21;101262.25;;;15.14;84.21
80712;BME280;70078;51.596;5.678;2024-02-15T12:47:49;101275.88;;;15.27;84.43
80712;BME280;70078;51.596;5.678;2024-02-15T12:50:19;101275.22;;;15.25;84.47
80712;BME280;70078;51.596;5.678;2024-02-15T12:52:51;101263.81;;;15.23;84.71
80712;BME280;70078;51.596;5.678;2024-02-15T12:55:19;101264.00;;;15.36;84.74
80712;BME280;70078;51.596;5.678;2024-02-15T12:57:49;101262.94;;;15.52;84.71
80712;BME280;70078;51.596;5.678;2024-02-15T13:02:50;101242.25;;;15.52;83.89